sensor_id;sensor_type;location;lat;lon;timestamp;P1;durP1;ratioP1;P2;durP2;ratioP2
3647;SDS011;1840;48.892;15.312;2022-12-07T00:01:40;12.10;;;6.67;;
3647;SDS011;1840;48.892;15.312;2022-12-07T00:04:11;8.83;;;6.67;;
3647;SDS011;1840;48.892;15.312;2022-12-07T00:06:40;8.43;;;6.20;;
3647;SDS011;1840;48.892;15.312;2022-12-07T00:09:10;8.73;;;5.63;;
3647;SDS011;1840;48.892;15.312;2022-12-07T00:11:42;8.83;;;5.93;;
3647;SDS011;1840;48.892;15.312;2022-12-07T00:14:12;8.13;;;5.83;;
3647;SDS011;1840;48.892;15.312;2022-12-07T00:16:42;6.83;;;5.13;;
3647;SDS011;1840;48.892;15.312;2022-12-07T00:19:12;7.43;;;5.73;;
3647;SDS011;1840;48.892;15.312;2022-12-07T00:21:43;6.53;;;4.87;;
3647;SDS011;1840;48.892;15.312;2022-12-07T00:24:11;7.80;;;5.53;;
3647;SDS011;1840;48.892;15.312;2022-12-07T00:26:40;7.30;;;6.03;;
3647;SDS011;1840;48.892;15.312;2022-12-07T00:29:11;8.03;;;6.27;;
3647;SDS011;1840;48.892;15.312;2022-12-07T00:31:43;8.60;;;5.73;;
3647;SDS011;1840;48.892;15.312;2022-12-07T00:34:14;6.50;;;5.10;;
3647;SDS011;1840;48.892;15.312;2022-12-07T00:36:44;8.20;;;5.90;;
3647;SDS011;1840;48.892;15.312;2022-12-07T00:39:12;9.83;;;5.20;;
3647;SDS011;1840;48.892;15.312;2022-12-07T00:41:40;7.20;;;5.33;;
3647;SDS011;1840;48.892;15.312;2022-12-07T00:44:08;10.47;;;6.83;;
3647;SDS011;1840;48.892;15.312;2022-12-07T00:46:36;8.57;;;6.53;;
3647;SDS011;1840;48.892;15.312;2022-12-07T00:49:04;8.20;;;5.83;;
3647;SDS011;1840;48.892;15.312;2022-12-07T00:51:34;7.20;;;5.40;;
3647;SDS011;1840;48.892;15.312;2022-12-07T00:54:02;7.80;;;5.60;;
3647;SDS011;1840;48.892;15.312;2022-12-07T00:56:30;6.97;;;5.17;;
3647;SDS011;1840;48.892;15.312;2022-12-07T00:58:58;7.43;;;5.77;;
3647;SDS011;1840;48.892;15.312;2022-12-07T01:01:28;8.53;;;6.23;;
3647;SDS011;1840;48.892;15.312;2022-12-07T01:03:58;8.07;;;5.50;;
3647;SDS011;1840;48.892;15.312;2022-12-07T01:06:28;7.00;;;5.40;;
3647;SDS011;1840;48.892;15.312;2022-12-07T01:08:58;7.03;;;5.57;;
3647;SDS011;1840;48.892;15.312;2022-12-07T01:11:27;7.77;;;5.70;;
3647;SDS011;1840;48.892;15.312;2022-12-07T01:13:57;9.07;;;5.93;;
3647;SDS011;1840;48.892;15.312;2022-12-07T01:16:27;7.60;;;5.83;;
3647;SDS011;1840;48.892;15.312;2022-12-07T01:18:57;8.13;;;6.07;;
3647;SDS011;1840;48.892;15.312;2022-12-07T01:21:26;11.13;;;6.80;;
3647;SDS011;1840;48.892;15.312;2022-12-07T01:23:56;7.03;;;5.60;;
3647;SDS011;1840;48.892;15.312;2022-12-07T01:26:26;8.67;;;6.67;;
3647;SDS011;1840;48.892;15.312;2022-12-07T01:28:55;7.97;;;5.60;;
3647;SDS011;1840;48.892;15.312;2022-12-07T01:31:25;7.63;;;5.40;;
3647;SDS011;1840;48.892;15.312;2022-12-07T01:33:54;8.30;;;6.60;;
3647;SDS011;1840;48.892;15.312;2022-12-07T01:36:28;10.07;;;6.07;;
3647;SDS011;1840;48.892;15.312;2022-12-07T01:38:59;9.37;;;6.30;;
3647;SDS011;1840;48.892;15.312;2022-12-07T01:41:29;12.50;;;6.67;;
3647;SDS011;1840;48.892;15.312;2022-12-07T01:44:07;8.17;;;6.37;;
3647;SDS011;1840;48.892;15.312;2022-12-07T01:46:44;7.80;;;6.10;;
3647;SDS011;1840;48.892;15.312;2022-12-07T01:49:14;6.40;;;4.70;;
3647;SDS011;1840;48.892;15.312;2022-12-07T01:51:46;7.60;;;5.87;;
3647;SDS011;1840;48.892;15.312;2022-12-07T01:54:17;7.77;;;6.10;;
3647;SDS011;1840;48.892;15.312;2022-12-07T01:56:48;9.43;;;6.10;;
3647;SDS011;1840;48.892;15.312;2022-12-07T01:59:19;7.03;;;5.50;;
3647;SDS011;1840;48.892;15.312;2022-12-07T02:01:50;7.30;;;5.53;;
3647;SDS011;1840;48.892;15.312;2022-12-07T02:04:19;8.60;;;6.20;;
3647;SDS011;1840;48.892;15.312;2022-12-07T02:06:49;6.80;;;5.53;;
3647;SDS011;1840;48.892;15.312;2022-12-07T02:09:20;8.67;;;6.37;;
3647;SDS011;1840;48.892;15.312;2022-12-07T02:11:48;6.50;;;5.43;;
3647;SDS011;1840;48.892;15.312;2022-12-07T02:14:16;7.80;;;5.27;;
3647;SDS011;1840;48.892;15.312;2022-12-07T02:16:48;6.10;;;5.13;;
3647;SDS011;1840;48.892;15.312;2022-12-07T02:22:51;8.67;;;6.30;;
3647;SDS011;1840;48.892;15.312;2022-12-07T02:25:49;9.00;;;5.57;;
3647;SDS011;1840;48.892;15.312;2022-12-07T02:28:31;10.00;;;5.83;;
3647;SDS011;1840;48.892;15.312;2022-12-07T02:31:04;6.47;;;5.40;;
3647;SDS011;1840;48.892;15.312;2022-12-07T02:33:36;9.63;;;6.20;;
3647;SDS011;1840;48.892;15.312;2022-12-07T02:36:10;8.80;;;5.90;;
3647;SDS011;1840;48.892;15.312;2022-12-07T02:38:43;7.27;;;5.47;;
3647;SDS011;1840;48.892;15.312;2022-12-07T02:41:16;7.67;;;5.93;;
3647;SDS011;1840;48.892;15.312;2022-12-07T02:43:50;7.50;;;6.10;;
3647;SDS011;1840;48.892;15.312;2022-12-07T02:46:23;6.90;;;5.80;;
3647;SDS011;1840;48.892;15.312;2022-12-07T02:48:56;9.67;;;5.63;;
3647;SDS011;1840;48.892;15.312;2022-12-07T02:51:27;8.37;;;6.50;;
3647;SDS011;1840;48.892;15.312;2022-12-07T02:53:58;9.03;;;6.47;;
3647;SDS011;1840;48.892;15.312;2022-12-07T02:56:30;8.90;;;5.87;;
3647;SDS011;1840;48.892;15.312;2022-12-07T02:59:09;8.73;;;6.40;;
3647;SDS011;1840;48.892;15.312;2022-12-07T03:01:50;7.77;;;5.77;;
3647;SDS011;1840;48.892;15.312;2022-12-07T03:04:31;7.30;;;6.17;;
3647;SDS011;1840;48.892;15.312;2022-12-07T03:07:10;9.60;;;6.70;;
3647;SDS011;1840;48.892;15.312;2022-12-07T03:09:50;9.37;;;6.27;;
3647;SDS011;1840;48.892;15.312;2022-12-07T03:12:24;11.23;;;6.50;;
3647;SDS011;1840;48.892;15.312;2022-12-07T03:14:59;10.07;;;6.30;;
3647;SDS011;1840;48.892;15.312;2022-12-07T03:17:32;8.60;;;7.13;;
3647;SDS011;1840;48.892;15.312;2022-12-07T03:20:05;7.37;;;6.30;;
3647;SDS011;1840;48.892;15.312;2022-12-07T03:22:36;10.40;;;7.00;;
3647;SDS011;1840;48.892;15.312;2022-12-07T03:25:08;9.57;;;6.70;;
3647;SDS011;1840;48.892;15.312;2022-12-07T03:27:41;7.87;;;6.07;;
3647;SDS011;1840;48.892;15.312;2022-12-07T03:30:14;9.17;;;7.13;;
3647;SDS011;1840;48.892;15.312;2022-12-07T03:32:48;10.50;;;7.30;;
3647;SDS011;1840;48.892;15.312;2022-12-07T03:35:21;9.23;;;6.73;;
3647;SDS011;1840;48.892;15.312;2022-12-07T03:37:55;9.43;;;7.10;;
3647;SDS011;1840;48.892;15.312;2022-12-07T03:40:28;11.07;;;8.43;;
3647;SDS011;1840;48.892;15.312;2022-12-07T03:43:02;13.23;;;8.60;;
3647;SDS011;1840;48.892;15.312;2022-12-07T03:45:33;10.77;;;8.13;;
3647;SDS011;1840;48.892;15.312;2022-12-07T03:48:08;12.10;;;8.40;;
3647;SDS011;1840;48.892;15.312;2022-12-07T03:50:48;12.73;;;8.77;;
3647;SDS011;1840;48.892;15.312;2022-12-07T03:53:22;11.17;;;7.93;;
3647;SDS011;1840;48.892;15.312;2022-12-07T03:55:58;10.70;;;7.57;;
3647;SDS011;1840;48.892;15.312;2022-12-07T03:58:29;12.33;;;8.27;;
3647;SDS011;1840;48.892;15.312;2022-12-07T04:00:57;11.93;;;8.00;;
3647;SDS011;1840;48.892;15.312;2022-12-07T04:03:27;11.03;;;8.60;;
3647;SDS011;1840;48.892;15.312;2022-12-07T04:05:55;13.43;;;8.00;;
3647;SDS011;1840;48.892;15.312;2022-12-07T04:08:24;9.07;;;7.00;;
3647;SDS011;1840;48.892;15.312;2022-12-07T04:10:52;13.00;;;7.77;;
3647;SDS011;1840;48.892;15.312;2022-12-07T04:13:20;8.10;;;6.83;;
3647;SDS011;1840;48.892;15.312;2022-12-07T04:15:49;13.50;;;6.90;;
3647;SDS011;1840;48.892;15.312;2022-12-07T04:18:17;8.80;;;6.97;;
3647;SDS011;1840;48.892;15.312;2022-12-07T04:20:46;9.97;;;6.40;;
3647;SDS011;1840;48.892;15.312;2022-12-07T04:23:15;10.47;;;7.37;;
3647;SDS011;1840;48.892;15.312;2022-12-07T04:25:43;8.30;;;6.90;;
3647;SDS011;1840;48.892;15.312;2022-12-07T04:28:12;8.10;;;6.60;;
3647;SDS011;1840;48.892;15.312;2022-12-07T04:30:40;7.73;;;6.50;;
3647;SDS011;1840;48.892;15.312;2022-12-07T04:33:08;9.07;;;6.57;;
3647;SDS011;1840;48.892;15.312;2022-12-07T04:35:36;7.97;;;6.57;;
3647;SDS011;1840;48.892;15.312;2022-12-07T04:38:05;7.40;;;6.03;;
3647;SDS011;1840;48.892;15.312;2022-12-07T04:40:34;8.63;;;6.20;;
3647;SDS011;1840;48.892;15.312;2022-12-07T04:43:02;6.80;;;5.63;;
3647;SDS011;1840;48.892;15.312;2022-12-07T04:45:31;7.83;;;6.30;;
3647;SDS011;1840;48.892;15.312;2022-12-07T04:47:58;8.73;;;6.37;;
3647;SDS011;1840;48.892;15.312;2022-12-07T04:50:26;8.93;;;6.07;;
3647;SDS011;1840;48.892;15.312;2022-12-07T04:52:54;8.00;;;6.47;;
3647;SDS011;1840;48.892;15.312;2022-12-07T04:55:24;8.67;;;6.30;;
3647;SDS011;1840;48.892;15.312;2022-12-07T04:57:52;8.63;;;6.30;;
3647;SDS011;1840;48.892;15.312;2022-12-07T05:00:20;8.13;;;6.23;;
3647;SDS011;1840;48.892;15.312;2022-12-07T05:02:48;7.97;;;5.73;;
3647;SDS011;1840;48.892;15.312;2022-12-07T05:05:16;7.93;;;5.90;;
3647;SDS011;1840;48.892;15.312;2022-12-07T05:07:44;8.70;;;6.97;;
3647;SDS011;1840;48.892;15.312;2022-12-07T05:12:41;9.10;;;6.17;;
3647;SDS011;1840;48.892;15.312;2022-12-07T05:15:09;7.50;;;5.80;;
3647;SDS011;1840;48.892;15.312;2022-12-07T05:17:38;8.03;;;5.90;;
3647;SDS011;1840;48.892;15.312;2022-12-07T05:20:06;8.30;;;6.27;;
3647;SDS011;1840;48.892;15.312;2022-12-07T05:22:35;8.83;;;6.70;;
3647;SDS011;1840;48.892;15.312;2022-12-07T05:25:04;9.50;;;6.60;;
3647;SDS011;1840;48.892;15.312;2022-12-07T05:27:32;8.97;;;6.50;;
3647;SDS011;1840;48.892;15.312;2022-12-07T05:30:05;8.00;;;6.87;;
3647;SDS011;1840;48.892;15.312;2022-12-07T05:32:34;8.10;;;5.90;;
3647;SDS011;1840;48.892;15.312;2022-12-07T05:35:02;8.07;;;6.43;;
3647;SDS011;1840;48.892;15.312;2022-12-07T05:37:30;9.13;;;6.50;;
3647;SDS011;1840;48.892;15.312;2022-12-07T05:40:00;10.53;;;7.57;;
3647;SDS011;1840;48.892;15.312;2022-12-07T05:42:32;12.60;;;7.17;;
3647;SDS011;1840;48.892;15.312;2022-12-07T05:45:00;8.90;;;6.53;;
3647;SDS011;1840;48.892;15.312;2022-12-07T05:47:29;9.63;;;7.03;;
3647;SDS011;1840;48.892;15.312;2022-12-07T05:49:57;10.87;;;8.23;;
3647;SDS011;1840;48.892;15.312;2022-12-07T05:52:26;10.97;;;8.10;;
3647;SDS011;1840;48.892;15.312;2022-12-07T05:54:54;9.63;;;8.13;;
3647;SDS011;1840;48.892;15.312;2022-12-07T05:57:22;10.50;;;8.13;;
3647;SDS011;1840;48.892;15.312;2022-12-07T05:59:50;12.07;;;8.20;;
3647;SDS011;1840;48.892;15.312;2022-12-07T06:02:17;13.17;;;8.30;;
3647;SDS011;1840;48.892;15.312;2022-12-07T06:04:46;13.80;;;8.83;;
3647;SDS011;1840;48.892;15.312;2022-12-07T06:07:15;11.30;;;7.83;;
3647;SDS011;1840;48.892;15.312;2022-12-07T06:09:43;13.90;;;8.37;;
3647;SDS011;1840;48.892;15.312;2022-12-07T06:12:12;12.50;;;8.37;;
3647;SDS011;1840;48.892;15.312;2022-12-07T06:14:58;13.43;;;7.70;;
3647;SDS011;1840;48.892;15.312;2022-12-07T06:17:26;16.17;;;9.40;;
3647;SDS011;1840;48.892;15.312;2022-12-07T06:19:55;11.10;;;8.00;;
3647;SDS011;1840;48.892;15.312;2022-12-07T06:22:23;13.03;;;7.70;;
3647;SDS011;1840;48.892;15.312;2022-12-07T06:24:52;13.87;;;8.73;;
3647;SDS011;1840;48.892;15.312;2022-12-07T06:27:20;14.13;;;8.83;;
3647;SDS011;1840;48.892;15.312;2022-12-07T06:29:48;15.10;;;8.40;;
3647;SDS011;1840;48.892;15.312;2022-12-07T06:32:16;13.90;;;7.80;;
3647;SDS011;1840;48.892;15.312;2022-12-07T06:34:44;13.10;;;7.70;;
3647;SDS011;1840;48.892;15.312;2022-12-07T06:37:15;11.73;;;7.40;;
3647;SDS011;1840;48.892;15.312;2022-12-07T06:39:42;13.77;;;9.20;;
3647;SDS011;1840;48.892;15.312;2022-12-07T06:42:11;12.80;;;8.53;;
3647;SDS011;1840;48.892;15.312;2022-12-07T06:44:39;13.20;;;8.70;;
3647;SDS011;1840;48.892;15.312;2022-12-07T06:47:10;14.93;;;9.00;;
3647;SDS011;1840;48.892;15.312;2022-12-07T06:49:58;12.63;;;8.20;;
3647;SDS011;1840;48.892;15.312;2022-12-07T06:52:35;9.10;;;7.30;;
3647;SDS011;1840;48.892;15.312;2022-12-07T06:55:03;13.60;;;8.30;;
3647;SDS011;1840;48.892;15.312;2022-12-07T06:57:31;13.40;;;7.67;;
3647;SDS011;1840;48.892;15.312;2022-12-07T06:59:59;11.03;;;7.07;;
3647;SDS011;1840;48.892;15.312;2022-12-07T07:02:28;10.20;;;6.80;;
3647;SDS011;1840;48.892;15.312;2022-12-07T07:04:56;8.93;;;6.80;;
3647;SDS011;1840;48.892;15.312;2022-12-07T07:07:24;8.70;;;5.80;;
3647;SDS011;1840;48.892;15.312;2022-12-07T07:09:54;11.03;;;6.30;;
3647;SDS011;1840;48.892;15.312;2022-12-07T07:12:22;7.67;;;5.80;;
3647;SDS011;1840;48.892;15.312;2022-12-07T07:14:50;9.20;;;5.97;;
3647;SDS011;1840;48.892;15.312;2022-12-07T07:17:18;8.60;;;5.67;;
3647;SDS011;1840;48.892;15.312;2022-12-07T07:19:46;7.80;;;5.43;;
3647;SDS011;1840;48.892;15.312;2022-12-07T07:22:14;7.60;;;5.90;;
3647;SDS011;1840;48.892;15.312;2022-12-07T07:24:45;7.43;;;5.80;;
3647;SDS011;1840;48.892;15.312;2022-12-07T07:27:16;9.60;;;6.07;;
3647;SDS011;1840;48.892;15.312;2022-12-07T07:29:43;6.53;;;5.10;;
3647;SDS011;1840;48.892;15.312;2022-12-07T07:32:11;10.00;;;5.00;;
3647;SDS011;1840;48.892;15.312;2022-12-07T07:34:40;8.47;;;5.37;;
3647;SDS011;1840;48.892;15.312;2022-12-07T07:37:08;7.77;;;5.47;;
3647;SDS011;1840;48.892;15.312;2022-12-07T07:39:37;6.40;;;4.60;;
3647;SDS011;1840;48.892;15.312;2022-12-07T07:42:05;6.50;;;4.90;;
3647;SDS011;1840;48.892;15.312;2022-12-07T07:44:35;8.07;;;5.50;;
3647;SDS011;1840;48.892;15.312;2022-12-07T07:47:03;7.47;;;5.30;;
3647;SDS011;1840;48.892;15.312;2022-12-07T07:49:31;5.60;;;4.37;;
3647;SDS011;1840;48.892;15.312;2022-12-07T07:51:59;5.97;;;4.40;;
3647;SDS011;1840;48.892;15.312;2022-12-07T07:54:27;6.37;;;4.83;;
3647;SDS011;1840;48.892;15.312;2022-12-07T07:56:56;9.83;;;5.27;;
3647;SDS011;1840;48.892;15.312;2022-12-07T07:59:24;6.70;;;5.27;;
3647;SDS011;1840;48.892;15.312;2022-12-07T08:01:54;5.63;;;4.73;;
3647;SDS011;1840;48.892;15.312;2022-12-07T08:04:23;7.73;;;5.20;;
3647;SDS011;1840;48.892;15.312;2022-12-07T08:06:51;10.07;;;6.00;;
3647;SDS011;1840;48.892;15.312;2022-12-07T08:09:19;6.67;;;4.70;;
3647;SDS011;1840;48.892;15.312;2022-12-07T08:11:50;7.30;;;5.80;;
3647;SDS011;1840;48.892;15.312;2022-12-07T08:14:18;7.60;;;5.43;;
3647;SDS011;1840;48.892;15.312;2022-12-07T08:16:46;6.00;;;4.70;;
3647;SDS011;1840;48.892;15.312;2022-12-07T08:19:15;6.40;;;4.90;;
3647;SDS011;1840;48.892;15.312;2022-12-07T08:21:43;8.30;;;5.60;;
3647;SDS011;1840;48.892;15.312;2022-12-07T08:24:11;8.33;;;5.90;;
3647;SDS011;1840;48.892;15.312;2022-12-07T08:26:40;9.00;;;6.63;;
3647;SDS011;1840;48.892;15.312;2022-12-07T08:29:08;7.10;;;5.00;;
3647;SDS011;1840;48.892;15.312;2022-12-07T08:31:36;8.77;;;5.20;;
3647;SDS011;1840;48.892;15.312;2022-12-07T08:34:05;7.10;;;5.10;;
3647;SDS011;1840;48.892;15.312;2022-12-07T08:36:34;9.50;;;5.67;;
3647;SDS011;1840;48.892;15.312;2022-12-07T08:39:03;6.87;;;4.97;;
3647;SDS011;1840;48.892;15.312;2022-12-07T08:41:52;6.70;;;4.67;;
3647;SDS011;1840;48.892;15.312;2022-12-07T08:44:20;8.20;;;5.80;;
3647;SDS011;1840;48.892;15.312;2022-12-07T08:46:49;6.60;;;4.87;;
3647;SDS011;1840;48.892;15.312;2022-12-07T08:49:21;12.83;;;7.60;;
3647;SDS011;1840;48.892;15.312;2022-12-07T08:51:56;8.10;;;4.80;;
3647;SDS011;1840;48.892;15.312;2022-12-07T08:54:24;5.70;;;4.70;;
3647;SDS011;1840;48.892;15.312;2022-12-07T08:56:52;5.63;;;4.33;;
3647;SDS011;1840;48.892;15.312;2022-12-07T08:59:25;6.40;;;4.70;;
3647;SDS011;1840;48.892;15.312;2022-12-07T09:01:55;6.93;;;4.70;;
3647;SDS011;1840;48.892;15.312;2022-12-07T09:04:23;6.50;;;4.70;;
3647;SDS011;1840;48.892;15.312;2022-12-07T09:06:51;6.03;;;4.57;;
3647;SDS011;1840;48.892;15.312;2022-12-07T09:09:22;5.97;;;4.53;;
3647;SDS011;1840;48.892;15.312;2022-12-07T09:11:50;7.90;;;4.77;;
3647;SDS011;1840;48.892;15.312;2022-12-07T09:14:18;6.77;;;4.70;;
3647;SDS011;1840;48.892;15.312;2022-12-07T09:16:46;7.73;;;4.40;;
3647;SDS011;1840;48.892;15.312;2022-12-07T09:19:14;5.23;;;4.00;;
3647;SDS011;1840;48.892;15.312;2022-12-07T09:21:44;4.90;;;3.77;;
3647;SDS011;1840;48.892;15.312;2022-12-07T09:24:12;9.40;;;4.33;;
3647;SDS011;1840;48.892;15.312;2022-12-07T09:26:44;5.60;;;3.63;;
3647;SDS011;1840;48.892;15.312;2022-12-07T09:29:12;6.70;;;4.77;;
3647;SDS011;1840;48.892;15.312;2022-12-07T09:31:40;5.10;;;4.13;;
3647;SDS011;1840;48.892;15.312;2022-12-07T09:34:08;6.70;;;4.07;;
3647;SDS011;1840;48.892;15.312;2022-12-07T09:36:36;5.90;;;4.30;;
3647;SDS011;1840;48.892;15.312;2022-12-07T09:39:04;7.10;;;4.43;;
3647;SDS011;1840;48.892;15.312;2022-12-07T09:41:32;5.43;;;4.10;;
3647;SDS011;1840;48.892;15.312;2022-12-07T09:44:04;6.77;;;4.30;;
3647;SDS011;1840;48.892;15.312;2022-12-07T09:46:34;6.87;;;4.23;;
3647;SDS011;1840;48.892;15.312;2022-12-07T09:49:07;5.90;;;4.63;;
3647;SDS011;1840;48.892;15.312;2022-12-07T09:51:39;6.10;;;4.50;;
3647;SDS011;1840;48.892;15.312;2022-12-07T09:54:09;10.73;;;4.80;;
3647;SDS011;1840;48.892;15.312;2022-12-07T09:56:40;8.10;;;4.70;;
3647;SDS011;1840;48.892;15.312;2022-12-07T09:59:14;5.23;;;4.00;;
3647;SDS011;1840;48.892;15.312;2022-12-07T10:01:46;5.87;;;4.47;;
3647;SDS011;1840;48.892;15.312;2022-12-07T10:04:16;8.47;;;4.40;;
3647;SDS011;1840;48.892;15.312;2022-12-07T10:06:47;6.03;;;4.33;;
3647;SDS011;1840;48.892;15.312;2022-12-07T10:09:20;6.00;;;4.30;;
3647;SDS011;1840;48.892;15.312;2022-12-07T10:12:04;4.93;;;3.93;;
3647;SDS011;1840;48.892;15.312;2022-12-07T10:14:36;6.53;;;4.43;;
3647;SDS011;1840;48.892;15.312;2022-12-07T10:17:33;7.03;;;4.80;;
3647;SDS011;1840;48.892;15.312;2022-12-07T10:20:15;5.17;;;4.03;;
3647;SDS011;1840;48.892;15.312;2022-12-07T10:22:58;5.30;;;4.07;;
3647;SDS011;1840;48.892;15.312;2022-12-07T10:25:29;4.87;;;3.90;;
3647;SDS011;1840;48.892;15.312;2022-12-07T10:28:00;9.13;;;4.00;;
3647;SDS011;1840;48.892;15.312;2022-12-07T10:30:46;4.37;;;3.63;;
3647;SDS011;1840;48.892;15.312;2022-12-07T10:33:32;5.07;;;3.70;;
3647;SDS011;1840;48.892;15.312;2022-12-07T10:36:15;5.03;;;3.20;;
3647;SDS011;1840;48.892;15.312;2022-12-07T10:38:49;4.93;;;3.40;;
3647;SDS011;1840;48.892;15.312;2022-12-07T10:41:19;5.00;;;3.30;;
3647;SDS011;1840;48.892;15.312;2022-12-07T10:43:51;4.50;;;3.00;;
3647;SDS011;1840;48.892;15.312;2022-12-07T10:49:23;3.87;;;2.87;;
3647;SDS011;1840;48.892;15.312;2022-12-07T10:52:24;3.47;;;2.60;;
3647;SDS011;1840;48.892;15.312;2022-12-07T10:55:08;3.93;;;3.00;;
3647;SDS011;1840;48.892;15.312;2022-12-07T11:00:39;3.20;;;2.80;;
3647;SDS011;1840;48.892;15.312;2022-12-07T11:03:25;5.00;;;3.33;;
3647;SDS011;1840;48.892;15.312;2022-12-07T11:06:09;4.77;;;3.60;;
3647;SDS011;1840;48.892;15.312;2022-12-07T11:08:51;6.50;;;4.10;;
3647;SDS011;1840;48.892;15.312;2022-12-07T11:12:08;4.10;;;3.20;;
3647;SDS011;1840;48.892;15.312;2022-12-07T11:14:44;6.43;;;3.20;;
3647;SDS011;1840;48.892;15.312;2022-12-07T11:17:23;4.73;;;3.60;;
3647;SDS011;1840;48.892;15.312;2022-12-07T11:20:02;4.20;;;3.23;;
3647;SDS011;1840;48.892;15.312;2022-12-07T11:22:41;4.27;;;3.50;;
3647;SDS011;1840;48.892;15.312;2022-12-07T11:25:20;5.37;;;3.70;;
3647;SDS011;1840;48.892;15.312;2022-12-07T11:28:02;5.20;;;4.00;;
3647;SDS011;1840;48.892;15.312;2022-12-07T11:30:46;5.93;;;4.10;;
3647;SDS011;1840;48.892;15.312;2022-12-07T11:33:21;4.60;;;3.30;;
3647;SDS011;1840;48.892;15.312;2022-12-07T11:36:00;5.50;;;3.97;;
3647;SDS011;1840;48.892;15.312;2022-12-07T11:38:37;6.30;;;4.03;;
3647;SDS011;1840;48.892;15.312;2022-12-07T11:41:10;4.43;;;3.47;;
3647;SDS011;1840;48.892;15.312;2022-12-07T11:43:45;4.20;;;3.50;;
3647;SDS011;1840;48.892;15.312;2022-12-07T11:46:19;5.53;;;3.97;;
3647;SDS011;1840;48.892;15.312;2022-12-07T11:48:54;5.57;;;3.43;;
3647;SDS011;1840;48.892;15.312;2022-12-07T11:51:30;5.43;;;3.40;;
3647;SDS011;1840;48.892;15.312;2022-12-07T11:54:03;6.77;;;3.97;;
3647;SDS011;1840;48.892;15.312;2022-12-07T11:56:38;4.80;;;3.40;;
3647;SDS011;1840;48.892;15.312;2022-12-07T11:59:08;6.80;;;4.43;;
3647;SDS011;1840;48.892;15.312;2022-12-07T12:01:45;5.00;;;3.73;;
3647;SDS011;1840;48.892;15.312;2022-12-07T12:04:23;4.00;;;3.30;;
3647;SDS011;1840;48.892;15.312;2022-12-07T12:07:00;5.90;;;4.40;;
3647;SDS011;1840;48.892;15.312;2022-12-07T12:09:50;5.50;;;3.83;;
3647;SDS011;1840;48.892;15.312;2022-12-07T12:15:49;7.57;;;4.13;;
3647;SDS011;1840;48.892;15.312;2022-12-07T12:18:29;9.60;;;4.20;;
3647;SDS011;1840;48.892;15.312;2022-12-07T12:21:10;5.77;;;3.57;;
3647;SDS011;1840;48.892;15.312;2022-12-07T12:23:47;5.57;;;3.80;;
3647;SDS011;1840;48.892;15.312;2022-12-07T12:26:22;6.03;;;4.50;;
3647;SDS011;1840;48.892;15.312;2022-12-07T12:28:54;6.40;;;4.20;;
3647;SDS011;1840;48.892;15.312;2022-12-07T12:31:31;5.20;;;3.60;;
3647;SDS011;1840;48.892;15.312;2022-12-07T12:34:03;5.00;;;3.70;;
3647;SDS011;1840;48.892;15.312;2022-12-07T12:36:53;5.00;;;3.83;;
3647;SDS011;1840;48.892;15.312;2022-12-07T12:39:21;5.53;;;4.20;;
3647;SDS011;1840;48.892;15.312;2022-12-07T12:41:56;5.63;;;3.83;;
3647;SDS011;1840;48.892;15.312;2022-12-07T12:47:43;5.47;;;4.30;;
3647;SDS011;1840;48.892;15.312;2022-12-07T12:50:21;8.60;;;6.07;;
3647;SDS011;1840;48.892;15.312;2022-12-07T12:53:00;6.27;;;5.03;;
3647;SDS011;1840;48.892;15.312;2022-12-07T12:58:40;6.47;;;5.27;;
3647;SDS011;1840;48.892;15.312;2022-12-07T13:04:17;16.93;;;6.30;;
3647;SDS011;1840;48.892;15.312;2022-12-07T13:07:13;7.30;;;5.10;;
3647;SDS011;1840;48.892;15.312;2022-12-07T13:10:33;6.93;;;5.27;;
3647;SDS011;1840;48.892;15.312;2022-12-07T13:13:29;8.93;;;5.50;;
3647;SDS011;1840;48.892;15.312;2022-12-07T13:22:37;10.20;;;5.63;;
3647;SDS011;1840;48.892;15.312;2022-12-07T13:25:12;7.33;;;5.37;;
3647;SDS011;1840;48.892;15.312;2022-12-07T13:27:48;7.90;;;5.17;;
3647;SDS011;1840;48.892;15.312;2022-12-07T13:30:23;7.93;;;6.00;;
3647;SDS011;1840;48.892;15.312;2022-12-07T13:32:52;7.40;;;5.10;;
3647;SDS011;1840;48.892;15.312;2022-12-07T13:35:28;6.33;;;5.53;;
3647;SDS011;1840;48.892;15.312;2022-12-07T13:37:57;7.10;;;5.73;;
3647;SDS011;1840;48.892;15.312;2022-12-07T13:40:25;8.53;;;5.73;;
3647;SDS011;1840;48.892;15.312;2022-12-07T13:42:58;7.90;;;5.60;;
3647;SDS011;1840;48.892;15.312;2022-12-07T13:45:29;9.37;;;5.47;;
3647;SDS011;1840;48.892;15.312;2022-12-07T13:48:20;6.80;;;5.23;;
3647;SDS011;1840;48.892;15.312;2022-12-07T13:50:54;10.17;;;5.53;;
3647;SDS011;1840;48.892;15.312;2022-12-07T13:53:23;8.50;;;5.33;;
3647;SDS011;1840;48.892;15.312;2022-12-07T13:55:54;8.30;;;5.80;;
3647;SDS011;1840;48.892;15.312;2022-12-07T13:58:24;7.40;;;5.30;;
3647;SDS011;1840;48.892;15.312;2022-12-07T14:00:52;7.10;;;5.60;;
3647;SDS011;1840;48.892;15.312;2022-12-07T14:03:28;14.73;;;6.30;;
3647;SDS011;1840;48.892;15.312;2022-12-07T14:09:06;13.33;;;5.40;;
3647;SDS011;1840;48.892;15.312;2022-12-07T14:11:35;10.23;;;5.80;;
3647;SDS011;1840;48.892;15.312;2022-12-07T14:14:06;10.10;;;6.33;;
3647;SDS011;1840;48.892;15.312;2022-12-07T14:16:41;7.57;;;5.63;;
3647;SDS011;1840;48.892;15.312;2022-12-07T14:22:19;9.27;;;6.13;;
3647;SDS011;1840;48.892;15.312;2022-12-07T14:24:57;8.97;;;5.97;;
3647;SDS011;1840;48.892;15.312;2022-12-07T14:27:30;7.77;;;5.70;;
3647;SDS011;1840;48.892;15.312;2022-12-07T14:30:05;8.97;;;6.13;;
3647;SDS011;1840;48.892;15.312;2022-12-07T14:32:35;6.57;;;5.20;;
3647;SDS011;1840;48.892;15.312;2022-12-07T14:35:08;7.33;;;6.30;;
3647;SDS011;1840;48.892;15.312;2022-12-07T14:37:39;8.37;;;6.20;;
3647;SDS011;1840;48.892;15.312;2022-12-07T14:40:11;6.50;;;5.30;;
3647;SDS011;1840;48.892;15.312;2022-12-07T14:42:44;7.87;;;5.90;;
3647;SDS011;1840;48.892;15.312;2022-12-07T14:45:19;8.53;;;5.57;;
3647;SDS011;1840;48.892;15.312;2022-12-07T14:47:50;9.37;;;5.97;;
3647;SDS011;1840;48.892;15.312;2022-12-07T14:50:39;6.20;;;4.90;;
3647;SDS011;1840;48.892;15.312;2022-12-07T14:53:31;11.27;;;6.13;;
3647;SDS011;1840;48.892;15.312;2022-12-07T14:56:02;13.50;;;6.37;;
3647;SDS011;1840;48.892;15.312;2022-12-07T14:58:34;8.13;;;4.90;;
3647;SDS011;1840;48.892;15.312;2022-12-07T15:01:03;9.70;;;5.40;;
3647;SDS011;1840;48.892;15.312;2022-12-07T15:03:31;8.23;;;5.60;;
3647;SDS011;1840;48.892;15.312;2022-12-07T15:06:01;8.17;;;5.23;;
3647;SDS011;1840;48.892;15.312;2022-12-07T15:08:30;7.60;;;5.13;;
3647;SDS011;1840;48.892;15.312;2022-12-07T15:10:58;9.27;;;5.93;;
3647;SDS011;1840;48.892;15.312;2022-12-07T15:13:26;6.47;;;4.60;;
3647;SDS011;1840;48.892;15.312;2022-12-07T15:16:13;7.30;;;4.63;;
3647;SDS011;1840;48.892;15.312;2022-12-07T15:18:49;7.57;;;4.30;;
3647;SDS011;1840;48.892;15.312;2022-12-07T15:21:37;6.67;;;4.47;;
3647;SDS011;1840;48.892;15.312;2022-12-07T15:24:05;7.27;;;5.20;;
3647;SDS011;1840;48.892;15.312;2022-12-07T15:26:35;7.67;;;5.07;;
3647;SDS011;1840;48.892;15.312;2022-12-07T15:29:03;8.80;;;5.33;;
3647;SDS011;1840;48.892;15.312;2022-12-07T15:31:33;9.93;;;5.17;;
3647;SDS011;1840;48.892;15.312;2022-12-07T15:34:22;8.17;;;5.03;;
3647;SDS011;1840;48.892;15.312;2022-12-07T15:36:51;5.40;;;4.33;;
3647;SDS011;1840;48.892;15.312;2022-12-07T15:39:19;7.90;;;5.80;;
3647;SDS011;1840;48.892;15.312;2022-12-07T15:41:47;8.50;;;5.97;;
3647;SDS011;1840;48.892;15.312;2022-12-07T15:44:17;9.07;;;6.30;;
3647;SDS011;1840;48.892;15.312;2022-12-07T15:47:05;8.60;;;6.13;;
3647;SDS011;1840;48.892;15.312;2022-12-07T15:49:33;7.70;;;5.47;;
3647;SDS011;1840;48.892;15.312;2022-12-07T15:52:01;5.80;;;4.50;;
3647;SDS011;1840;48.892;15.312;2022-12-07T15:54:29;8.37;;;4.70;;
3647;SDS011;1840;48.892;15.312;2022-12-07T15:56:58;7.97;;;5.50;;
3647;SDS011;1840;48.892;15.312;2022-12-07T15:59:29;11.87;;;5.00;;
3647;SDS011;1840;48.892;15.312;2022-12-07T16:01:57;7.90;;;4.80;;
3647;SDS011;1840;48.892;15.312;2022-12-07T16:04:27;8.73;;;4.93;;
3647;SDS011;1840;48.892;15.312;2022-12-07T16:06:56;6.73;;;4.50;;